sensor_id;sensor_type;location;lat;lon;timestamp;pressure;altitude;pressure_sealevel;temperature;humidity
49529;BME280;35423;37.320;-121.762;2022-12-05T00:01:15;100240.74;;;24.79;21.98
49529;BME280;35423;37.320;-121.762;2022-12-05T00:03:44;100250.47;;;25.51;22.16
49529;BME280;35423;37.320;-121.762;2022-12-05T00:06:09;100249.09;;;25.09;22.07
49529;BME280;35423;37.320;-121.762;2022-12-05T00:08:43;100246.26;;;24.63;22.46
49529;BME280;35423;37.320;-121.762;2022-12-05T00:11:12;100244.44;;;24.23;23.04
49529;BME280;35423;37.320;-121.762;2022-12-05T00:13:34;100248.72;;;24.32;23.32
49529;BME280;35423;37.320;-121.762;2022-12-05T00:16:07;100252.36;;;23.81;23.55
49529;BME280;35423;37.320;-121.762;2022-12-05T00:18:32;100254.72;;;24.26;23.47
49529;BME280;35423;37.320;-121.762;2022-12-05T00:20:58;100257.46;;;23.57;23.54
49529;BME280;35423;37.320;-121.762;2022-12-05T00:23:32;100256.83;;;23.95;23.57
49529;BME280;35423;37.320;-121.762;2022-12-05T00:26:03;100257.13;;;23.93;23.64
49529;BME280;35423;37.320;-121.762;2022-12-05T00:28:30;100254.89;;;23.47;24.23
49529;BME280;35423;37.320;-121.762;2022-12-05T00:30:56;100254.56;;;23.00;24.39
49529;BME280;35423;37.320;-121.762;2022-12-05T00:33:24;100256.35;;;24.02;24.40
49529;BME280;35423;37.320;-121.762;2022-12-05T00:35:52;100257.28;;;23.30;24.46
49529;BME280;35423;37.320;-121.762;2022-12-05T00:38:36;100255.26;;;23.53;24.57
49529;BME280;35423;37.320;-121.762;2022-12-05T00:41:25;100253.81;;;23.58;24.40
49529;BME280;35423;37.320;-121.762;2022-12-05T00:43:51;100252.49;;;23.50;24.36
49529;BME280;35423;37.320;-121.762;2022-12-05T00:46:34;100251.97;;;23.86;24.36
49529;BME280;35423;37.320;-121.762;2022-12-05T00:49:00;100253.12;;;22.80;24.34
49529;BME280;35423;37.320;-121.762;2022-12-05T00:51:28;100254.83;;;23.75;24.36
49529;BME280;35423;37.320;-121.762;2022-12-05T00:53:54;100253.84;;;22.82;24.43
49529;BME280;35423;37.320;-121.762;2022-12-05T00:56:29;100257.23;;;23.95;24.67
49529;BME280;35423;37.320;-121.762;2022-12-05T00:58:55;100255.96;;;22.83;24.77
49529;BME280;35423;37.320;-121.762;2022-12-05T01:01:30;100252.51;;;23.46;24.90
49529;BME280;35423;37.320;-121.762;2022-12-05T01:03:55;100253.54;;;22.88;25.12
49529;BME280;35423;37.320;-121.762;2022-12-05T01:06:33;100252.26;;;23.27;25.20
49529;BME280;35423;37.320;-121.762;2022-12-05T01:09:00;100252.56;;;22.77;25.40
49529;BME280;35423;37.320;-121.762;2022-12-05T01:11:28;100254.28;;;23.12;25.56
49529;BME280;35423;37.320;-121.762;2022-12-05T01:13:58;100252.80;;;22.60;25.65
49529;BME280;35423;37.320;-121.762;2022-12-05T01:16:27;100256.67;;;22.91;25.65
49529;BME280;35423;37.320;-121.762;2022-12-05T01:18:52;100253.23;;;22.57;25.59
49529;BME280;35423;37.320;-121.762;2022-12-05T01:21:20;100255.74;;;22.81;25.66
49529;BME280;35423;37.320;-121.762;2022-12-05T01:23:50;100254.72;;;22.34;25.61
49529;BME280;35423;37.320;-121.762;2022-12-05T01:26:16;100259.21;;;22.88;25.66
49529;BME280;35423;37.320;-121.762;2022-12-05T01:28:43;100261.89;;;22.99;25.88
49529;BME280;35423;37.320;-121.762;2022-12-05T01:31:11;100261.48;;;22.02;26.14
49529;BME280;35423;37.320;-121.762;2022-12-05T01:33:34;100261.60;;;22.95;26.15
49529;BME280;35423;37.320;-121.762;2022-12-05T01:36:47;100251.88;;;22.59;25.82
49529;BME280;35423;37.320;-121.762;2022-12-05T01:39:18;100254.13;;;22.68;26.05
49529;BME280;35423;37.320;-121.762;2022-12-05T01:41:48;100255.79;;;22.16;26.21
49529;BME280;35423;37.320;-121.762;2022-12-05T01:46:48;100260.85;;;22.28;26.10
49529;BME280;35423;37.320;-121.762;2022-12-05T01:49:14;100258.34;;;22.28;26.18
49529;BME280;35423;37.320;-121.762;2022-12-05T01:51:39;100258.70;;;22.81;26.01
49529;BME280;35423;37.320;-121.762;2022-12-05T01:54:28;100255.89;;;22.63;26.03
49529;BME280;35423;37.320;-121.762;2022-12-05T01:57:00;100258.25;;;21.88;25.92
49529;BME280;35423;37.320;-121.762;2022-12-05T01:59:28;100264.89;;;22.47;26.20
49529;BME280;35423;37.320;-121.762;2022-12-05T02:01:58;100265.95;;;21.84;25.86
49529;BME280;35423;37.320;-121.762;2022-12-05T02:04:26;100261.64;;;22.47;25.93
49529;BME280;35423;37.320;-121.762;2022-12-05T02:06:55;100265.88;;;21.73;25.98
49529;BME280;35423;37.320;-121.762;2022-12-05T02:09:23;100266.35;;;22.33;26.05
49529;BME280;35423;37.320;-121.762;2022-12-05T02:11:58;100264.99;;;21.91;26.26
49529;BME280;35423;37.320;-121.762;2022-12-05T02:14:37;100267.88;;;22.10;26.39
49529;BME280;35423;37.320;-121.762;2022-12-05T02:17:05;100267.00;;;21.55;26.52
49529;BME280;35423;37.320;-121.762;2022-12-05T02:27:09;100273.54;;;21.65;26.59
49529;BME280;35423;37.320;-121.762;2022-12-05T02:32:04;100269.84;;;21.65;26.18
49529;BME280;35423;37.320;-121.762;2022-12-05T02:34:42;100268.09;;;22.08;26.30
49529;BME280;35423;37.320;-121.762;2022-12-05T02:37:10;100268.39;;;21.53;26.25
49529;BME280;35423;37.320;-121.762;2022-12-05T02:39:37;100270.08;;;22.05;25.58
49529;BME280;35423;37.320;-121.762;2022-12-05T02:42:08;100263.89;;;21.45;25.78
49529;BME280;35423;37.320;-121.762;2022-12-05T02:44:43;100268.36;;;22.00;25.85
49529;BME280;35423;37.320;-121.762;2022-12-05T02:47:07;100271.37;;;21.49;26.08
49529;BME280;35423;37.320;-121.762;2022-12-05T02:49:44;100274.36;;;21.72;26.22
49529;BME280;35423;37.320;-121.762;2022-12-05T02:52:30;100269.72;;;21.93;26.07
49529;BME280;35423;37.320;-121.762;2022-12-05T02:54:58;100265.30;;;21.36;26.25
49529;BME280;35423;37.320;-121.762;2022-12-05T02:57:34;100265.19;;;22.24;26.44
49529;BME280;35423;37.320;-121.762;2022-12-05T03:00:03;100259.43;;;21.23;26.52
49529;BME280;35423;37.320;-121.762;2022-12-05T03:02:37;100248.27;;;21.64;26.53
49529;BME280;35423;37.320;-121.762;2022-12-05T03:05:16;100247.73;;;20.96;26.45
49529;BME280;35423;37.320;-121.762;2022-12-05T03:07:37;100259.27;;;21.69;26.43
49529;BME280;35423;37.320;-121.762;2022-12-05T03:10:11;100258.80;;;21.68;26.43
49529;BME280;35423;37.320;-121.762;2022-12-05T03:12:38;100263.15;;;21.59;26.58
49529;BME280;35423;37.320;-121.762;2022-12-05T03:15:11;100263.62;;;21.38;26.61
49529;BME280;35423;37.320;-121.762;2022-12-05T03:17:46;100265.22;;;21.87;26.56
49529;BME280;35423;37.320;-121.762;2022-12-05T03:20:10;100268.53;;;21.75;26.43
49529;BME280;35423;37.320;-121.762;2022-12-05T03:22:39;100263.17;;;21.18;26.08
49529;BME280;35423;37.320;-121.762;2022-12-05T03:25:07;100260.98;;;20.92;26.09
49529;BME280;35423;37.320;-121.762;2022-12-05T03:27:42;100265.03;;;21.36;26.32
49529;BME280;35423;37.320;-121.762;2022-12-05T03:30:10;100273.93;;;21.68;26.66
49529;BME280;35423;37.320;-121.762;2022-12-05T03:32:46;100281.50;;;21.12;26.85
49529;BME280;35423;37.320;-121.762;2022-12-05T03:35:25;100283.13;;;21.59;26.95
49529;BME280;35423;37.320;-121.762;2022-12-05T03:37:53;100276.29;;;20.83;26.88
49529;BME280;35423;37.320;-121.762;2022-12-05T03:41:12;100265.28;;;20.89;25.01
49529;BME280;35423;37.320;-121.762;2022-12-05T03:43:51;100266.36;;;21.91;23.71
49529;BME280;35423;37.320;-121.762;2022-12-05T03:47:40;100256.87;;;22.51;22.64
49529;BME280;35423;37.320;-121.762;2022-12-05T03:50:14;100252.54;;;22.81;22.44
49529;BME280;35423;37.320;-121.762;2022-12-05T03:52:55;100258.60;;;23.26;22.44
49529;BME280;35423;37.320;-121.762;2022-12-05T03:55:26;100266.75;;;23.31;22.50
49529;BME280;35423;37.320;-121.762;2022-12-05T03:57:53;100269.12;;;23.80;23.76
49529;BME280;35423;37.320;-121.762;2022-12-05T04:00:16;100264.22;;;23.02;25.27
49529;BME280;35423;37.320;-121.762;2022-12-05T04:02:45;100260.10;;;22.28;26.05
49529;BME280;35423;37.320;-121.762;2022-12-05T04:05:11;100272.00;;;21.34;26.58
49529;BME280;35423;37.320;-121.762;2022-12-05T04:07:53;100275.12;;;21.86;27.10
49529;BME280;35423;37.320;-121.762;2022-12-05T04:10:15;100271.30;;;20.62;27.48
49529;BME280;35423;37.320;-121.762;2022-12-05T04:12:41;100268.89;;;20.86;27.61
49529;BME280;35423;37.320;-121.762;2022-12-05T04:15:12;100265.33;;;19.98;27.61
49529;BME280;35423;37.320;-121.762;2022-12-05T04:17:49;100260.59;;;21.02;27.42
49529;BME280;35423;37.320;-121.762;2022-12-05T04:20:25;100255.30;;;20.75;27.35
49529;BME280;35423;37.320;-121.762;2022-12-05T04:22:51;100259.84;;;20.39;27.59
49529;BME280;35423;37.320;-121.762;2022-12-05T04:25:26;100271.82;;;20.58;27.73
49529;BME280;35423;37.320;-121.762;2022-12-05T04:27:55;100271.12;;;20.55;27.95
49529;BME280;35423;37.320;-121.762;2022-12-05T04:30:19;100272.68;;;20.51;27.90
49529;BME280;35423;37.320;-121.762;2022-12-05T04:32:47;100278.40;;;20.41;27.74
49529;BME280;35423;37.320;-121.762;2022-12-05T04:35:16;100281.60;;;20.07;27.74
49529;BME280;35423;37.320;-121.762;2022-12-05T04:37:41;100275.13;;;20.49;27.57
49529;BME280;35423;37.320;-121.762;2022-12-05T04:40:09;100274.66;;;20.20;27.53
49529;BME280;35423;37.320;-121.762;2022-12-05T04:42:35;100271.10;;;20.84;27.60
49529;BME280;35423;37.320;-121.762;2022-12-05T04:45:17;100268.82;;;20.25;27.69
49529;BME280;35423;37.320;-121.762;2022-12-05T04:47:45;100265.43;;;20.51;27.69
49529;BME280;35423;37.320;-121.762;2022-12-05T04:50:10;100257.85;;;19.95;27.75
49529;BME280;35423;37.320;-121.762;2022-12-05T04:52:46;100260.62;;;20.58;27.88
49529;BME280;35423;37.320;-121.762;2022-12-05T04:55:12;100268.68;;;19.97;28.21
49529;BME280;35423;37.320;-121.762;2022-12-05T04:57:48;100253.63;;;20.20;28.34
49529;BME280;35423;37.320;-121.762;2022-12-05T05:00:13;100245.05;;;19.90;28.22
49529;BME280;35423;37.320;-121.762;2022-12-05T05:02:49;100245.68;;;20.18;28.32
49529;BME280;35423;37.320;-121.762;2022-12-05T05:05:11;100245.12;;;19.87;28.20
49529;BME280;35423;37.320;-121.762;2022-12-05T05:07:50;100255.64;;;19.77;28.25
49529;BME280;35423;37.320;-121.762;2022-12-05T05:10:18;100252.11;;;19.46;28.41
49529;BME280;35423;37.320;-121.762;2022-12-05T05:12:42;100246.58;;;19.72;28.19
49529;BME280;35423;37.320;-121.762;2022-12-05T05:15:15;100242.34;;;19.29;27.91
49529;BME280;35423;37.320;-121.762;2022-12-05T05:17:44;100237.73;;;20.20;27.46
49529;BME280;35423;37.320;-121.762;2022-12-05T05:20:10;100239.01;;;20.18;27.64
49529;BME280;35423;37.320;-121.762;2022-12-05T05:22:51;100242.79;;;20.08;27.50
49529;BME280;35423;37.320;-121.762;2022-12-05T05:25:21;100241.87;;;20.01;27.53
49529;BME280;35423;37.320;-121.762;2022-12-05T05:27:51;100248.67;;;19.53;27.51
49529;BME280;35423;37.320;-121.762;2022-12-05T05:30:18;100261.19;;;19.97;27.34
49529;BME280;35423;37.320;-121.762;2022-12-05T05:32:48;100264.53;;;19.48;27.50
49529;BME280;35423;37.320;-121.762;2022-12-05T05:35:23;100257.89;;;19.96;27.33
49529;BME280;35423;37.320;-121.762;2022-12-05T05:37:49;100253.61;;;19.48;27.43
49529;BME280;35423;37.320;-121.762;2022-12-05T05:40:20;100250.96;;;19.96;27.30
49529;BME280;35423;37.320;-121.762;2022-12-05T05:42:48;100260.47;;;19.76;27.38
49529;BME280;35423;37.320;-121.762;2022-12-05T05:45:17;100254.96;;;19.49;27.55
49529;BME280;35423;37.320;-121.762;2022-12-05T05:47:44;100254.25;;;19.96;27.75
49529;BME280;35423;37.320;-121.762;2022-12-05T05:50:17;100248.82;;;19.41;28.06
49529;BME280;35423;37.320;-121.762;2022-12-05T05:52:44;100250.92;;;19.87;28.19
49529;BME280;35423;37.320;-121.762;2022-12-05T05:55:39;100257.88;;;19.99;28.19
49529;BME280;35423;37.320;-121.762;2022-12-05T05:58:07;100249.87;;;19.58;28.05
49529;BME280;35423;37.320;-121.762;2022-12-05T06:00:34;100244.20;;;19.26;28.28
49529;BME280;35423;37.320;-121.762;2022-12-05T06:03:31;100249.93;;;19.46;28.52
49529;BME280;35423;37.320;-121.762;2022-12-05T06:06:09;100247.74;;;18.97;28.37
49529;BME280;35423;37.320;-121.762;2022-12-05T06:08:42;100247.61;;;19.42;28.44
49529;BME280;35423;37.320;-121.762;2022-12-05T06:11:08;100252.55;;;18.41;28.43
49529;BME280;35423;37.320;-121.762;2022-12-05T06:13:36;100251.42;;;19.35;28.30
49529;BME280;35423;37.320;-121.762;2022-12-05T06:16:03;100256.72;;;18.43;28.14
49529;BME280;35423;37.320;-121.762;2022-12-05T06:18:28;100255.05;;;19.38;27.76
49529;BME280;35423;37.320;-121.762;2022-12-05T06:21:09;100259.34;;;18.87;27.83
49529;BME280;35423;37.320;-121.762;2022-12-05T06:23:44;100258.34;;;19.70;27.60
49529;BME280;35423;37.320;-121.762;2022-12-05T06:26:12;100250.27;;;19.14;27.97
49529;BME280;35423;37.320;-121.762;2022-12-05T06:28:37;100245.38;;;19.25;28.13
49529;BME280;35423;37.320;-121.762;2022-12-05T06:31:08;100238.93;;;18.86;28.18
49529;BME280;35423;37.320;-121.762;2022-12-05T06:33:38;100239.04;;;19.03;28.17
49529;BME280;35423;37.320;-121.762;2022-12-05T06:36:09;100235.42;;;18.29;28.24
49529;BME280;35423;37.320;-121.762;2022-12-05T06:38:46;100238.09;;;19.42;28.45
49529;BME280;35423;37.320;-121.762;2022-12-05T06:41:14;100242.91;;;18.84;28.62
49529;BME280;35423;37.320;-121.762;2022-12-05T06:43:36;100241.74;;;19.28;28.85
49529;BME280;35423;37.320;-121.762;2022-12-05T06:46:04;100237.38;;;18.57;28.70
49529;BME280;35423;37.320;-121.762;2022-12-05T06:48:30;100234.24;;;18.83;28.53
49529;BME280;35423;37.320;-121.762;2022-12-05T06:50:56;100237.83;;;17.97;28.07
49529;BME280;35423;37.320;-121.762;2022-12-05T06:53:21;100241.12;;;19.33;28.24
49529;BME280;35423;37.320;-121.762;2022-12-05T06:55:56;100243.29;;;19.00;28.23
49529;BME280;35423;37.320;-121.762;2022-12-05T06:58:21;100246.33;;;18.96;28.21
49529;BME280;35423;37.320;-121.762;2022-12-05T07:00:56;100245.92;;;17.97;27.93
49529;BME280;35423;37.320;-121.762;2022-12-05T07:03:25;100242.11;;;18.67;27.74
49529;BME280;35423;37.320;-121.762;2022-12-05T07:05:51;100236.61;;;18.47;27.70
49529;BME280;35423;37.320;-121.762;2022-12-05T07:08:17;100236.25;;;18.66;27.79
49529;BME280;35423;37.320;-121.762;2022-12-05T07:10:51;100233.99;;;19.13;27.99
49529;BME280;35423;37.320;-121.762;2022-12-05T07:13:13;100231.50;;;18.64;27.96
49529;BME280;35423;37.320;-121.762;2022-12-05T07:15:44;100227.84;;;19.07;27.95
49529;BME280;35423;37.320;-121.762;2022-12-05T07:18:10;100223.44;;;18.08;28.07
49529;BME280;35423;37.320;-121.762;2022-12-05T07:20:36;100216.48;;;18.84;28.08
49529;BME280;35423;37.320;-121.762;2022-12-05T07:23:07;100216.86;;;18.55;28.27
49529;BME280;35423;37.320;-121.762;2022-12-05T07:25:39;100221.83;;;18.55;28.12
49529;BME280;35423;37.320;-121.762;2022-12-05T07:28:16;100216.70;;;18.78;27.85
49529;BME280;35423;37.320;-121.762;2022-12-05T07:30:43;100218.82;;;18.42;27.73
49529;BME280;35423;37.320;-121.762;2022-12-05T07:33:08;100223.48;;;17.84;27.98
49529;BME280;35423;37.320;-121.762;2022-12-05T07:35:37;100222.07;;;18.80;27.95
49529;BME280;35423;37.320;-121.762;2022-12-05T07:38:05;100219.27;;;18.28;27.74
49529;BME280;35423;37.320;-121.762;2022-12-05T07:40:33;100217.84;;;18.76;27.75
49529;BME280;35423;37.320;-121.762;2022-12-05T07:42:59;100212.43;;;17.74;27.76
49529;BME280;35423;37.320;-121.762;2022-12-05T07:45:26;100210.50;;;18.16;27.78
49529;BME280;35423;37.320;-121.762;2022-12-05T07:47:54;100208.02;;;17.90;27.53
49529;BME280;35423;37.320;-121.762;2022-12-05T07:50:33;100211.26;;;18.45;27.92
49529;BME280;35423;37.320;-121.762;2022-12-05T07:53:02;100211.38;;;18.19;28.12
49529;BME280;35423;37.320;-121.762;2022-12-05T07:55:31;100214.10;;;18.39;28.16
49529;BME280;35423;37.320;-121.762;2022-12-05T07:57:59;100215.65;;;17.48;28.33
49529;BME280;35423;37.320;-121.762;2022-12-05T08:00:29;100207.19;;;17.52;28.44
49529;BME280;35423;37.320;-121.762;2022-12-05T08:02:54;100197.86;;;17.55;28.28
49529;BME280;35423;37.320;-121.762;2022-12-05T08:05:38;100197.68;;;18.47;28.50
49529;BME280;35423;37.320;-121.762;2022-12-05T08:08:05;100195.94;;;17.42;28.52
49529;BME280;35423;37.320;-121.762;2022-12-05T08:10:34;100197.98;;;18.16;28.45
49529;BME280;35423;37.320;-121.762;2022-12-05T08:13:02;100195.96;;;17.37;28.38
49529;BME280;35423;37.320;-121.762;2022-12-05T08:15:48;100191.40;;;18.02;28.47
49529;BME280;35423;37.320;-121.762;2022-12-05T08:18:27;100185.81;;;18.23;28.26
49529;BME280;35423;37.320;-121.762;2022-12-05T08:21:01;100179.01;;;17.63;28.34
49529;BME280;35423;37.320;-121.762;2022-12-05T08:23:30;100173.02;;;18.07;28.40
49529;BME280;35423;37.320;-121.762;2022-12-05T08:25:56;100171.13;;;17.03;28.29
49529;BME280;35423;37.320;-121.762;2022-12-05T08:28:23;100172.34;;;17.93;28.42
49529;BME280;35423;37.320;-121.762;2022-12-05T08:30:52;100176.35;;;17.43;28.47
49529;BME280;35423;37.320;-121.762;2022-12-05T08:33:49;100175.94;;;18.36;28.50
49529;BME280;35423;37.320;-121.762;2022-12-05T08:36:43;100169.79;;;18.11;28.51
49529;BME280;35423;37.320;-121.762;2022-12-05T08:39:13;100167.75;;;17.80;28.20
49529;BME280;35423;37.320;-121.762;2022-12-05T08:41:48;100167.67;;;17.93;28.16
49529;BME280;35423;37.320;-121.762;2022-12-05T08:44:13;100156.69;;;17.51;28.48
49529;BME280;35423;37.320;-121.762;2022-12-05T08:46:39;100150.95;;;17.69;28.46
49529;BME280;35423;37.320;-121.762;2022-12-05T08:49:13;100150.06;;;17.60;28.56
49529;BME280;35423;37.320;-121.762;2022-12-05T08:51:38;100152.05;;;17.78;28.44
49529;BME280;35423;37.320;-121.762;2022-12-05T08:54:03;100148.78;;;17.26;28.25
49529;BME280;35423;37.320;-121.762;2022-12-05T08:56:29;100151.10;;;17.54;28.31
49529;BME280;35423;37.320;-121.762;2022-12-05T08:58:56;100150.64;;;16.90;28.19
49529;BME280;35423;37.320;-121.762;2022-12-05T09:01:29;100151.94;;;17.56;28.29
49529;BME280;35423;37.320;-121.762;2022-12-05T09:03:53;100151.34;;;16.83;28.47
49529;BME280;35423;37.320;-121.762;2022-12-05T09:06:27;100149.30;;;17.50;28.44
49529;BME280;35423;37.320;-121.762;2022-12-05T09:08:55;100149.89;;;16.76;28.57
49529;BME280;35423;37.320;-121.762;2022-12-05T09:11:21;100147.96;;;17.40;28.70
49529;BME280;35423;37.320;-121.762;2022-12-05T09:13:51;100143.28;;;16.96;28.66
49529;BME280;35423;37.320;-121.762;2022-12-05T09:16:16;100144.81;;;17.15;28.54
49529;BME280;35423;37.320;-121.762;2022-12-05T09:18:40;100144.08;;;17.60;28.32
49529;BME280;35423;37.320;-121.762;2022-12-05T09:21:16;100139.01;;;17.23;28.53
49529;BME280;35423;37.320;-121.762;2022-12-05T09:23:50;100137.95;;;16.95;28.71
49529;BME280;35423;37.320;-121.762;2022-12-05T09:26:17;100136.45;;;17.08;28.53
49529;BME280;35423;37.320;-121.762;2022-12-05T09:28:42;100134.93;;;17.27;28.12
49529;BME280;35423;37.320;-121.762;2022-12-05T09:31:10;100138.06;;;17.27;27.79
49529;BME280;35423;37.320;-121.762;2022-12-05T09:33:38;100145.53;;;17.29;28.19
49529;BME280;35423;37.320;-121.762;2022-12-05T09:36:04;100147.87;;;16.77;28.44
49529;BME280;35423;37.320;-121.762;2022-12-05T09:38:29;100147.95;;;17.22;28.61
49529;BME280;35423;37.320;-121.762;2022-12-05T09:41:04;100149.46;;;16.43;28.77
49529;BME280;35423;37.320;-121.762;2022-12-05T09:43:26;100148.73;;;17.18;28.82
49529;BME280;35423;37.320;-121.762;2022-12-05T09:45:58;100145.46;;;16.77;28.53
49529;BME280;35423;37.320;-121.762;2022-12-05T09:48:31;100138.94;;;17.24;28.28
49529;BME280;35423;37.320;-121.762;2022-12-05T09:50:59;100134.06;;;16.22;28.26
49529;BME280;35423;37.320;-121.762;2022-12-05T09:53:26;100132.32;;;17.21;28.30
49529;BME280;35423;37.320;-121.762;2022-12-05T09:55:51;100132.80;;;16.70;28.61
49529;BME280;35423;37.320;-121.762;2022-12-05T09:58:27;100135.51;;;17.17;28.74
49529;BME280;35423;37.320;-121.762;2022-12-05T10:01:01;100134.91;;;16.76;28.81
49529;BME280;35423;37.320;-121.762;2022-12-05T10:03:37;100131.38;;;16.98;28.78
49529;BME280;35423;37.320;-121.762;2022-12-05T10:06:07;100129.94;;;16.75;28.84
49529;BME280;35423;37.320;-121.762;2022-12-05T10:08:28;100129.16;;;17.42;28.99
49529;BME280;35423;37.320;-121.762;2022-12-05T10:10:56;100128.90;;;16.71;28.87
49529;BME280;35423;37.320;-121.762;2022-12-05T10:13:35;100138.10;;;17.19;28.89
49529;BME280;35423;37.320;-121.762;2022-12-05T10:15:46;100141.64;;;17.24;28.69
49529;BME280;35423;37.320;-121.762;2022-12-05T10:18:18;100144.83;;;16.91;28.62
49529;BME280;35423;37.320;-121.762;2022-12-05T10:20:52;100142.75;;;16.86;28.62
49529;BME280;35423;37.320;-121.762;2022-12-05T10:23:33;100147.55;;;17.47;28.75
49529;BME280;35423;37.320;-121.762;2022-12-05T10:26:06;100149.29;;;16.16;28.92
49529;BME280;35423;37.320;-121.762;2022-12-05T10:28:34;100153.50;;;16.87;28.51
49529;BME280;35423;37.320;-121.762;2022-12-05T10:31:04;100155.01;;;16.10;28.32
49529;BME280;35423;37.320;-121.762;2022-12-05T10:33:43;100151.31;;;16.70;28.42
49529;BME280;35423;37.320;-121.762;2022-12-05T10:36:11;100154.23;;;16.86;28.16
49529;BME280;35423;37.320;-121.762;2022-12-05T10:38:37;100153.69;;;17.42;28.20
49529;BME280;35423;37.320;-121.762;2022-12-05T10:41:12;100155.73;;;16.96;28.24
49529;BME280;35423;37.320;-121.762;2022-12-05T10:43:47;100161.26;;;17.02;28.19
49529;BME280;35423;37.320;-121.762;2022-12-05T10:46:12;100164.28;;;17.10;28.37
49529;BME280;35423;37.320;-121.762;2022-12-05T10:48:44;100159.66;;;17.15;28.38
49529;BME280;35423;37.320;-121.762;2022-12-05T10:51:17;100152.41;;;17.16;28.28
49529;BME280;35423;37.320;-121.762;2022-12-05T10:53:51;100149.73;;;17.10;28.53
49529;BME280;35423;37.320;-121.762;2022-12-05T10:58:54;100148.96;;;17.15;28.56
49529;BME280;35423;37.320;-121.762;2022-12-05T11:01:28;100144.99;;;17.12;28.74
49529;BME280;35423;37.320;-121.762;2022-12-05T11:03:58;100142.26;;;16.92;28.63
49529;BME280;35423;37.320;-121.762;2022-12-05T11:06:28;100143.87;;;16.63;28.79
49529;BME280;35423;37.320;-121.762;2022-12-05T11:08:53;100145.13;;;17.54;28.84
49529;BME280;35423;37.320;-121.762;2022-12-05T11:11:20;100151.00;;;16.66;29.08
49529;BME280;35423;37.320;-121.762;2022-12-05T11:13:53;100149.29;;;17.01;28.89
49529;BME280;35423;37.320;-121.762;2022-12-05T11:16:22;100145.46;;;16.96;28.88
49529;BME280;35423;37.320;-121.762;2022-12-05T11:18:42;100143.22;;;16.98;28.72
49529;BME280;35423;37.320;-121.762;2022-12-05T11:21:19;100143.72;;;16.92;28.90
49529;BME280;35423;37.320;-121.762;2022-12-05T11:23:50;100143.43;;;16.97;29.03
49529;BME280;35423;37.320;-121.762;2022-12-05T11:26:27;100142.99;;;17.24;28.90
49529;BME280;35423;37.320;-121.762;2022-12-05T11:28:41;100141.98;;;17.39;29.00
49529;BME280;35423;37.320;-121.762;2022-12-05T11:31:21;100142.39;;;16.93;29.03
49529;BME280;35423;37.320;-121.762;2022-12-05T11:33:41;100144.52;;;17.22;28.81
49529;BME280;35423;37.320;-121.762;2022-12-05T11:36:18;100141.60;;;16.94;28.70
49529;BME280;35423;37.320;-121.762;2022-12-05T11:38:48;100141.16;;;17.17;28.76
49529;BME280;35423;37.320;-121.762;2022-12-05T11:41:27;100134.16;;;16.86;28.65
49529;BME280;35423;37.320;-121.762;2022-12-05T11:43:56;100129.14;;;17.38;28.48
49529;BME280;35423;37.320;-121.762;2022-12-05T11:46:15;100120.99;;;16.88;28.54
49529;BME280;35423;37.320;-121.762;2022-12-05T11:48:45;100116.02;;;16.86;28.52
49529;BME280;35423;37.320;-121.762;2022-12-05T11:51:13;100119.00;;;16.67;28.51
49529;BME280;35423;37.320;-121.762;2022-12-05T11:53:39;100117.78;;;17.14;28.29
49529;BME280;35423;37.320;-121.762;2022-12-05T11:56:19;100115.29;;;16.66;28.22
49529;BME280;35423;37.320;-121.762;2022-12-05T11:59:00;100106.97;;;17.27;28.07
49529;BME280;35423;37.320;-121.762;2022-12-05T12:01:26;100106.44;;;17.03;27.95
49529;BME280;35423;37.320;-121.762;2022-12-05T12:04:01;100106.16;;;17.09;28.01
49529;BME280;35423;37.320;-121.762;2022-12-05T12:06:26;100109.19;;;17.09;28.19
49529;BME280;35423;37.320;-121.762;2022-12-05T12:09:09;100108.86;;;16.61;28.29
49529;BME280;35423;37.320;-121.762;2022-12-05T12:11:30;100102.67;;;17.07;28.30
49529;BME280;35423;37.320;-121.762;2022-12-05T12:14:00;100098.94;;;17.14;28.06
49529;BME280;35423;37.320;-121.762;2022-12-05T12:16:22;100093.50;;;17.57;28.15
49529;BME280;35423;37.320;-121.762;2022-12-05T12:18:53;100089.87;;;17.39;28.29
49529;BME280;35423;37.320;-121.762;2022-12-05T12:21:17;100089.48;;;16.91;28.24
49529;BME280;35423;37.320;-121.762;2022-12-05T12:23:50;100096.89;;;17.29;28.34
49529;BME280;35423;37.320;-121.762;2022-12-05T12:26:10;100101.07;;;17.04;28.46
49529;BME280;35423;37.320;-121.762;2022-12-05T12:28:56;100103.29;;;17.56;28.56
49529;BME280;35423;37.320;-121.762;2022-12-05T12:31:25;100102.61;;;16.62;28.65
49529;BME280;35423;37.320;-121.762;2022-12-05T12:33:35;100105.51;;;17.71;28.85
49529;BME280;35423;37.320;-121.762;2022-12-05T12:36:02;100105.26;;;16.40;29.15
49529;BME280;35423;37.320;-121.762;2022-12-05T12:38:49;100101.90;;;17.04;29.11
49529;BME280;35423;37.320;-121.762;2022-12-05T12:41:09;100100.87;;;16.62;29.15
49529;BME280;35423;37.320;-121.762;2022-12-05T12:43:43;100099.82;;;17.36;29.00
49529;BME280;35423;37.320;-121.762;2022-12-05T12:46:07;100097.41;;;16.97;29.03
49529;BME280;35423;37.320;-121.762;2022-12-05T12:48:40;100101.75;;;17.83;29.12
49529;BME280;35423;37.320;-121.762;2022-12-05T12:51:05;100101.26;;;17.53;29.41
49529;BME280;35423;37.320;-121.762;2022-12-05T12:53:41;100097.18;;;17.45;29.80